Time;durP1;ratioP1;P1;durP2;ratioP2;P2;SDS_P1;SDS_P2;PMS_P1;PMS_P2;Temp;Humidity;BMP_temperature;BMP_pressure;BME280_temperature;BME280_humidity;BME280_pressure;Samples;Min_cycle;Max_cycle;Signal;HPM_P1;HPM_P2
2022/09/05 00:00:38;;;;;;;8.43;4.73;;;;;;;19.45;100.00;102257.59;2080223;28;20412;-67
2022/09/05 00:01:55;;;;;;;11.97;5.10;;;;;;;19.43;100.00;102262.09;2080457;28;20461;-67
2022/09/05 00:03:20;;;;;;;9.87;4.07;;;;;;;19.40;100.00;102255.34;2079734;28;20424;-67
2022/09/05 00:04:50;;;;;;;11.63;4.90;;;;;;;19.18;100.00;102234.03;2080513;28;20478;-67
2022/09/05 00:06:05;;;;;;;6.77;4.37;;;;;;;19.30;100.00;102264.16;2079760;28;20452;-67
2022/09/05 00:07:23;;;;;;;7.23;4.23;;;;;;;19.29;100.00;102268.22;2080396;28;20443;-67
2022/09/05 00:08:29;;;;;;;6.83;4.40;;;;;;;19.28;100.00;102256.19;2080225;28;20411;-67
2022/09/05 00:09:35;;;;;;;6.00;4.83;;;;;;;19.20;100.00;102262.47;2080040;28;20463;-67
2022/09/05 00:11:05;;;;;;;6.27;4.90;;;;;;;19.16;100.00;102265.41;2079735;28;20455;-67
2022/09/05 00:12:08;;;;;;;7.87;5.13;;;;;;;18.30;100.00;102147.03;2079769;28;20412;-67
2022/09/05 00:13:24;;;;;;;7.60;5.67;;;;;;;18.98;100.00;102259.56;2079259;28;20446;-67
2022/09/05 00:14:46;;;;;;;10.43;5.03;;;;;;;18.94;100.00;102270.13;2078702;28;20451;-67
2022/09/05 00:15:49;;;;;;;11.87;5.50;;;;;;;18.94;100.00;102269.34;2078901;28;20479;-67
2022/09/05 00:17:02;;;;;;;9.80;5.30;;;;;;;18.94;100.00;102266.56;2079589;28;20443;-67
2022/09/05 00:18:19;;;;;;;8.73;5.40;;;;;;;18.98;100.00;102270.81;2079844;28;20955;-67
2022/09/05 00:19:26;;;;;;;7.33;5.33;;;;;;;19.01;100.00;102274.75;2079879;28;20817;-67
2022/09/05 00:20:31;;;;;;;9.63;5.53;;;;;;;19.02;100.00;102276.31;2079678;28;20431;-67
2022/09/05 00:21:46;;;;;;;9.07;6.30;;;;;;;18.91;100.00;102267.44;2079064;28;20447;-67
2022/09/05 00:23:22;;;;;;;10.27;6.13;;;;;;;18.92;100.00;102269.00;2079040;28;20482;-67
2022/09/05 00:25:00;;;;;;;10.20;6.23;;;;;;;18.92;100.00;102269.81;2078350;28;20504;-67
2022/09/05 00:26:28;;;;;;;7.67;5.60;;;;;;;18.97;100.00;102269.25;2079334;28;20444;-67
2022/09/05 00:27:37;;;;;;;9.23;5.77;;;;;;;18.98;100.00;102268.00;2079019;28;20520;-67
2022/09/05 00:28:53;;;;;;;10.57;6.07;;;;;;;18.99;100.00;102265.97;2079745;28;20454;-67
2022/09/05 00:30:06;;;;;;;9.40;6.00;;;;;;;18.96;100.00;102269.69;2080118;28;20481;-67
2022/09/05 00:31:12;;;;;;;10.47;5.93;;;;;;;19.00;100.00;102267.56;2079403;28;20436;-67
2022/09/05 00:32:23;;;;;;;9.93;5.87;;;;;;;18.77;100.00;102231.41;2080351;28;20483;-67
2022/09/05 00:34:01;;;;;;;12.13;6.03;;;;;;;18.94;100.00;102272.94;2079781;28;20439;-67
2022/09/05 00:35:32;;;;;;;8.57;6.07;;;;;;;18.92;100.00;102274.63;2077725;28;20431;-67
2022/09/05 00:36:36;;;;;;;8.00;5.73;;;;;;;18.94;100.00;102278.56;2078352;28;20448;-67
2022/09/05 00:37:38;;;;;;;13.10;6.23;;;;;;;18.96;100.00;102276.09;2079570;28;21030;-67
2022/09/05 00:38:50;;;;;;;11.60;6.10;;;;;;;18.99;100.00;102275.19;2079396;28;20549;-67
2022/09/05 00:39:51;;;;;;;6.93;6.23;;;;;;;18.98;100.00;102270.81;2080183;28;20518;-67
2022/09/05 00:40:55;;;;;;;8.40;5.87;;;;;;;19.02;100.00;102274.28;2078510;28;20438;-67
2022/09/05 00:42:03;;;;;;;8.40;6.57;;;;;;;19.00;100.00;102265.53;2079560;28;20210;-67
2022/09/05 00:43:11;;;;;;;8.17;6.20;;;;;;;19.07;100.00;102264.50;2079843;28;20416;-67
2022/09/05 00:44:13;;;;;;;7.13;6.40;;;;;;;19.10;100.00;102260.78;2080293;28;20416;-67
2022/09/05 00:45:24;;;;;;;7.83;5.93;;;;;;;19.11;100.00;102285.63;2078932;28;20463;-67
2022/09/05 00:46:33;;;;;;;10.60;5.90;;;;;;;19.02;100.00;102259.44;2079020;28;20444;-67
2022/09/05 00:47:52;;;;;;;8.47;5.80;;;;;;;19.04;100.00;102274.63;2078830;28;20428;-67
2022/09/05 00:49:34;;;;;;;7.57;5.87;;;;;;;18.55;100.00;102217.25;2078961;28;20784;-67
2022/09/05 00:50:56;;;;;;;8.27;6.47;;;;;;;19.03;100.00;102269.47;2079165;28;20563;-67
2022/09/05 00:52:06;;;;;;;7.80;5.57;;;;;;;19.04;100.00;102260.56;2080598;28;20407;-67
2022/09/05 00:53:20;;;;;;;6.73;5.90;;;;;;;19.03;100.00;102270.25;2080209;28;20426;-67
2022/09/05 00:54:36;;;;;;;6.93;5.73;;;;;;;19.05;100.00;102273.41;2080511;28;20866;-67
2022/09/05 00:55:59;;;;;;;7.87;5.97;;;;;;;19.01;100.00;102266.31;2079680;28;20419;-67
2022/09/05 00:57:02;;;;;;;7.17;5.80;;;;;;;19.03;100.00;102270.25;2079580;28;31258;-67
2022/09/05 00:58:40;;;;;;;7.10;6.13;;;;;;;19.02;100.00;102265.06;2079648;28;20430;-67
2022/09/05 01:00:04;;;;;;;9.37;6.20;;;;;;;18.95;100.00;102262.50;2079656;28;20526;-67
2022/09/05 01:01:25;;;;;;;8.37;6.40;;;;;;;18.96;100.00;102264.84;2079806;28;20865;-67
2022/09/05 01:02:49;;;;;;;7.47;6.63;;;;;;;18.98;100.00;102261.59;2079921;28;20513;-67
2022/09/05 01:04:04;;;;;;;9.77;5.97;;;;;;;18.99;100.00;102260.38;2079855;28;20498;-67
2022/09/05 01:05:25;;;;;;;12.37;6.33;;;;;;;18.96;100.00;102264.84;2079022;28;20515;-67
2022/09/05 01:06:41;;;;;;;11.90;6.83;;;;;;;18.90;100.00;102265.88;2079310;28;20439;-67
2022/09/05 01:08:10;;;;;;;12.60;6.67;;;;;;;18.90;100.00;102272.28;2079085;28;20435;-67
2022/09/05 01:09:18;;;;;;;9.83;6.83;;;;;;;18.84;100.00;102265.63;2079239;28;20429;-67
2022/09/05 01:10:32;;;;;;;8.97;6.93;;;;;;;18.87;100.00;102284.41;2079507;28;20422;-67
2022/09/05 01:12:15;;;;;;;10.60;6.73;;;;;;;18.81;100.00;102279.78;2079722;28;20932;-67
2022/09/05 01:13:51;;;;;;;8.10;7.07;;;;;;;18.74;100.00;102277.22;2079027;28;20533;-67
2022/09/05 01:14:51;;;;;;;10.33;7.10;;;;;;;18.81;100.00;102282.59;2078971;28;20451;-67
2022/09/05 01:16:08;;;;;;;8.63;6.90;;;;;;;18.81;100.00;102280.59;2080408;28;20447;-67
2022/09/05 01:17:17;;;;;;;10.57;7.33;;;;;;;18.79;100.00;102274.63;2079053;28;20650;-67
2022/09/05 01:18:49;;;;;;;10.40;7.30;;;;;;;18.82;100.00;102275.75;2079132;28;20521;-67
2022/09/05 01:20:10;;;;;;;11.67;6.80;;;;;;;18.86;100.00;102273.63;2080786;28;20478;-67
2022/09/05 01:21:32;;;;;;;10.17;6.70;;;;;;;18.89;100.00;102275.53;2079341;28;20815;-67
2022/09/05 01:22:38;;;;;;;8.97;7.17;;;;;;;18.90;100.00;102277.09;2080048;28;20444;-67
2022/09/05 01:24:02;;;;;;;8.13;6.60;;;;;;;18.23;100.00;102166.09;2079886;28;20443;-67
2022/09/05 01:25:22;;;;;;;11.50;7.07;;;;;;;18.90;100.00;102280.72;2079231;28;20890;-67
2022/09/05 01:26:38;;;;;;;10.33;7.47;;;;;;;18.89;100.00;102272.72;2079376;28;20434;-67
2022/09/05 01:27:54;;;;;;;10.00;6.90;;;;;;;18.78;100.00;102278.66;2078822;28;20501;-67
2022/09/05 01:29:00;;;;;;;9.27;7.70;;;;;;;18.85;100.00;102275.66;2078501;28;20416;-67
2022/09/05 01:30:10;;;;;;;11.80;7.20;;;;;;;18.86;100.00;102273.63;2079292;28;21020;-67
2022/09/05 01:31:10;;;;;;;9.37;6.77;;;;;;;18.87;100.00;102278.00;2079711;28;20430;-67
2022/09/05 01:32:36;;;;;;;9.23;7.30;;;;;;;18.36;100.00;102194.97;2080277;28;20928;-67
2022/09/05 01:33:55;;;;;;;8.07;7.27;;;;;;;18.92;100.00;102269.00;2079691;28;20256;-67
2022/09/05 01:34:56;;;;;;;9.70;7.57;;;;;;;18.97;100.00;102274.06;2078049;28;20452;-67
2022/09/05 01:36:29;;;;;;;10.77;7.37;;;;;;;18.99;100.00;102272.38;2078859;28;20458;-67
2022/09/05 01:37:43;;;;;;;7.83;7.03;;;;;;;18.99;100.00;102271.59;2069881;28;20248;-67
2022/09/05 01:39:03;;;;;;;11.27;8.07;;;;;;;18.64;100.00;102216.56;2070938;28;20937;-67
2022/09/05 01:40:18;;;;;;;9.07;7.63;;;;;;;18.97;100.00;102260.00;2079701;28;20538;-67
2022/09/05 01:41:45;;;;;;;8.30;7.33;;;;;;;18.97;100.00;102268.44;2080050;28;20844;-67
2022/09/05 01:43:03;;;;;;;8.47;7.07;;;;;;;19.00;100.00;102267.56;2081791;28;20480;-67
2022/09/05 01:44:13;;;;;;;10.73;7.23;;;;;;;18.99;100.00;102260.38;2082569;28;20930;-67
2022/09/05 01:45:30;;;;;;;13.97;7.67;;;;;;;19.00;100.00;102268.34;2081199;28;20840;-67
2022/09/05 01:47:06;;;;;;;12.10;8.13;;;;;;;18.90;100.00;102263.84;2081590;28;20834;-67
2022/09/05 01:48:19;;;;;;;10.00;7.63;;;;;;;18.85;100.00;102269.25;2082083;28;20489;-67
2022/09/05 01:49:52;;;;;;;9.90;8.03;;;;;;;18.59;100.00;102240.38;2081864;28;20947;-67
2022/09/05 01:51:19;;;;;;;10.30;8.53;;;;;;;18.75;100.00;102265.53;2082106;28;20923;-67
2022/09/05 01:52:44;;;;;;;9.27;7.83;;;;;;;18.28;100.00;102194.41;2082453;28;20538;-67
2022/09/05 01:53:55;;;;;;;9.43;8.43;;;;;;;18.76;100.00;102272.72;2081895;28;20442;-67
2022/09/05 01:55:15;;;;;;;11.60;8.70;;;;;;;18.67;100.00;102278.22;2081661;28;20492;-67
2022/09/05 01:56:47;;;;;;;11.33;8.93;;;;;;;18.58;100.00;102277.31;2081963;28;20494;-67
2022/09/05 01:58:14;;;;;;;9.10;8.13;;;;;;;18.54;100.00;102276.66;2081309;28;20439;-67
2022/09/05 01:59:35;;;;;;;9.93;8.47;;;;;;;18.43;100.00;102276.94;2081777;28;20430;-67
2022/09/05 02:00:46;;;;;;;11.40;9.17;;;;;;;18.42;100.00;102288.66;2082569;28;20527;-67
2022/09/05 02:02:08;;;;;;;17.63;8.77;;;;;;;18.42;100.00;102283.03;2082411;28;20448;-67
2022/09/05 02:03:33;;;;;;;12.83;8.83;;;;;;;18.41;100.00;102275.81;2082244;28;20424;-67
2022/09/05 02:05:11;;;;;;;13.07;8.63;;;;;;;18.37;100.00;102289.19;2081498;28;20479;-67
2022/09/05 02:06:33;;;;;;;11.53;8.50;;;;;;;18.35;100.00;102286.84;2081303;28;20453;-67
2022/09/05 02:07:58;;;;;;;11.07;8.50;;;;;;;18.25;100.00;102293.50;2081948;28;20504;-67
2022/09/05 02:09:28;;;;;;;11.07;8.57;;;;;;;18.18;100.00;102302.91;2081461;28;20451;-67
2022/09/05 02:11:06;;;;;;;10.97;8.80;;;;;;;18.06;100.00;102299.31;2082107;28;20438;-67
2022/09/05 02:12:28;;;;;;;12.40;9.13;;;;;;;18.00;100.00;102313.06;2082229;28;20449;-67
2022/09/05 02:13:35;;;;;;;16.43;9.23;;;;;;;18.07;100.00;102312.09;2082364;28;20441;-67
2022/09/05 02:14:50;;;;;;;12.93;9.07;;;;;;;17.42;100.00;102211.31;2081838;28;20450;-67
2022/09/05 02:16:27;;;;;;;10.87;8.70;;;;;;;18.17;100.00;102308.97;2082388;28;20409;-67
2022/09/05 02:17:42;;;;;;;15.07;8.40;;;;;;;18.22;100.00;102311.22;2081688;28;20444;-67
2022/09/05 02:19:07;;;;;;;12.93;8.53;;;;;;;18.27;100.00;102315.53;2081662;28;20545;-67
2022/09/05 02:20:20;;;;;;;12.07;8.07;;;;;;;18.28;100.00;102315.09;2081907;28;20523;-67
2022/09/05 02:21:36;;;;;;;16.57;9.10;;;;;;;18.31;100.00;102302.97;2082315;28;20589;-67
2022/09/05 02:22:49;;;;;;;13.83;8.50;;;;;;;17.96;100.00;102281.53;2081290;28;20455;-67
2022/09/05 02:24:28;;;;;;;11.43;8.70;;;;;;;18.27;100.00;102309.91;2081965;28;20514;-67
2022/09/05 02:25:57;;;;;;;14.87;8.33;;;;;;;18.28;100.00;102304.63;2081597;28;20432;-67
2022/09/05 02:27:30;;;;;;;10.77;8.10;;;;;;;18.32;100.00;102309.38;2081946;28;20921;-67
2022/09/05 02:28:54;;;;;;;10.47;8.23;;;;;;;18.28;100.00;102301.81;2082167;28;20422;-67
2022/09/05 02:30:09;;;;;;;11.27;8.50;;;;;;;18.32;100.00;102300.94;2081590;28;20461;-67
2022/09/05 02:31:28;;;;;;;9.63;7.73;;;;;;;18.33;100.00;102300.53;2082070;28;20961;-67
2022/09/05 02:32:43;;;;;;;10.73;8.20;;;;;;;18.34;100.00;102298.50;2082243;28;20480;-67
2022/09/05 02:34:08;;;;;;;12.57;7.50;;;;;;;18.35;100.00;102292.44;2082342;28;20438;-67
2022/09/05 02:35:08;;;;;;;12.63;7.80;;;;;;;18.37;100.00;102292.00;2081326;28;20446;-67
2022/09/05 02:36:35;;;;;;;11.97;7.70;;;;;;;18.37;100.00;102284.34;2081945;28;20477;-67
2022/09/05 02:37:48;;;;;;;10.00;7.93;;;;;;;18.34;100.00;102290.09;2081575;28;20285;-67
2022/09/05 02:39:03;;;;;;;11.70;7.70;;;;;;;18.32;100.00;102284.91;2082158;28;20402;-67
2022/09/05 02:40:15;;;;;;;9.23;7.80;;;;;;;18.19;100.00;102262.41;2081731;28;20807;-67
2022/09/05 02:41:34;;;;;;;13.77;7.93;;;;;;;17.93;100.00;102231.94;2081502;28;20903;-67
2022/09/05 02:42:41;;;;;;;12.97;8.03;;;;;;;18.32;100.00;102281.31;2081936;28;20473;-67
2022/09/05 02:43:57;;;;;;;14.50;8.50;;;;;;;18.27;100.00;102272.19;2081555;28;20469;-67
2022/09/05 02:45:13;;;;;;;11.30;7.70;;;;;;;18.29;100.00;102288.59;2080903;28;20470;-67
2022/09/05 02:46:25;;;;;;;14.47;8.67;;;;;;;18.28;100.00;102287.03;2081307;28;20452;-67
2022/09/05 02:47:32;;;;;;;16.37;8.03;;;;;;;18.27;100.00;102291.84;2081022;28;20446;-67
2022/09/05 02:48:39;;;;;;;13.30;8.23;;;;;;;18.28;100.00;102298.25;2081851;28;20453;-67
2022/09/05 02:50:09;;;;;;;14.63;8.87;;;;;;;18.27;100.00;102293.06;2081526;28;20466;-67
2022/09/05 02:51:15;;;;;;;14.53;8.60;;;;;;;18.26;100.00;102300.69;2082115;28;20465;-67
2022/09/05 02:52:18;;;;;;;13.60;8.90;;;;;;;18.25;100.00;102301.94;2081820;28;20461;-67
2022/09/05 02:53:21;;;;;;;16.97;8.67;;;;;;;18.22;100.00;102299.22;2081589;28;20680;-67
2022/09/05 02:54:26;;;;;;;14.20;8.20;;;;;;;18.20;100.00;102305.28;2080249;28;20498;-67
2022/09/05 02:55:30;;;;;;;16.07;8.00;;;;;;;18.19;100.00;102301.69;2080281;28;20427;-67
2022/09/05 02:56:38;;;;;;;15.03;8.10;;;;;;;18.17;100.00;102298.53;2080170;28;20444;-67
2022/09/05 02:57:45;;;;;;;14.43;7.80;;;;;;;18.18;100.00;102300.13;2080437;28;20959;-67
2022/09/05 02:59:01;;;;;;;13.93;7.90;;;;;;;18.18;100.00;102297.31;2080288;28;20486;-67
2022/09/05 03:00:14;;;;;;;14.00;7.80;;;;;;;18.18;100.00;102302.16;2080958;28;20445;-67
2022/09/05 03:01:39;;;;;;;10.67;7.60;;;;;;;18.14;100.00;102307.84;2080887;28;20444;-67
2022/09/05 03:02:59;;;;;;;13.53;7.50;;;;;;;17.48;100.00;102205.16;2080806;28;20443;-67
2022/09/05 03:04:13;;;;;;;21.93;8.97;;;;;;;18.08;100.00;102297.63;2080895;28;20494;-67
2022/09/05 03:05:22;;;;;;;14.73;8.07;;;;;;;18.01;100.00;102297.81;2079655;28;20473;-67
2022/09/05 03:06:41;;;;;;;14.27;8.20;;;;;;;18.07;100.00;102296.03;2080176;28;20746;-67
2022/09/05 03:08:12;;;;;;;12.57;8.07;;;;;;;18.10;100.00;102295.16;2079465;28;20436;-67
2022/09/05 03:09:33;;;;;;;14.37;7.67;;;;;;;18.13;100.00;102296.28;2079990;28;20509;-67
2022/09/05 03:10:42;;;;;;;9.87;7.57;;;;;;;18.09;100.00;102293.59;2080924;28;20443;-67
2022/09/05 03:12:10;;;;;;;14.37;8.07;;;;;;;18.09;100.00;102293.59;2080585;28;20450;-67
2022/09/05 03:13:22;;;;;;;12.37;7.63;;;;;;;18.07;100.00;102296.03;2080679;28;20412;-67
2022/09/05 03:14:44;;;;;;;11.13;8.40;;;;;;;18.04;100.00;102294.91;2081213;28;20415;-67
2022/09/05 03:16:13;;;;;;;8.30;7.20;;;;;;;18.12;100.00;102303.13;2080144;28;20415;-67
2022/09/05 03:17:29;;;;;;;13.20;8.00;;;;;;;18.12;100.00;102303.13;2080320;28;20431;-67
2022/09/05 03:19:05;;;;;;;11.13;7.53;;;;;;;18.12;100.00;102309.50;2080440;28;20450;-67
2022/09/05 03:20:05;;;;;;;10.20;7.57;;;;;;;18.16;100.00;102310.22;2080990;28;20419;-67
2022/09/05 03:21:36;;;;;;;11.43;7.83;;;;;;;18.16;100.00;102306.63;2079782;28;20704;-67
2022/09/05 03:22:57;;;;;;;14.37;8.37;;;;;;;18.17;100.00;102303.34;2080643;28;20598;-67
2022/09/05 03:24:35;;;;;;;13.77;9.13;;;;;;;18.14;100.00;102307.06;2079401;28;20442;-67
2022/09/05 03:26:10;;;;;;;14.20;8.10;;;;;;;18.19;100.00;102306.53;2079302;28;20533;-67
2022/09/05 03:27:40;;;;;;;13.30;9.40;;;;;;;18.11;100.00;102310.75;2080423;28;20503;-67
2022/09/05 03:28:50;;;;;;;11.93;8.77;;;;;;;18.04;100.00;102305.34;2080056;28;20573;-67
2022/09/05 03:30:44;;;;;;;15.37;9.27;;;;;;;18.05;100.00;102304.13;2080645;28;20464;-67
2022/09/05 03:32:18;;;;;;;11.73;8.13;;;;;;;18.08;100.00;102313.66;2079294;28;20486;-67
2022/09/05 03:33:38;;;;;;;22.17;9.83;;;;;;;18.10;100.00;102312.00;2078758;28;20474;-67
2022/09/05 03:35:09;;;;;;;22.03;9.10;;;;;;;18.12;100.00;102309.50;2078971;28;20462;-67
2022/09/05 03:36:46;;;;;;;14.53;9.67;;;;;;;18.14;100.00;102310.66;2078841;28;20420;-67
2022/09/05 03:38:22;;;;;;;15.60;8.60;;;;;;;18.13;100.00;102303.47;2079788;28;20439;-67
2022/09/05 03:39:31;;;;;;;13.30;9.23;;;;;;;18.13;100.00;102311.13;2079615;28;20898;-67
2022/09/05 03:40:38;;;;;;;11.60;8.00;;;;;;;18.13;100.00;102296.28;2080474;28;20448;-67
2022/09/05 03:42:21;;;;;;;14.13;8.40;;;;;;;18.18;100.00;102302.91;2079307;28;20462;-67
2022/09/05 03:43:35;;;;;;;15.47;8.70;;;;;;;18.19;100.00;102315.72;2078855;28;20430;-67
2022/09/05 03:44:47;;;;;;;12.10;8.33;;;;;;;18.21;100.00;102317.31;2079871;28;20847;-67
2022/09/05 03:46:15;;;;;;;12.53;8.73;;;;;;;18.21;100.00;102317.31;2080152;28;20452;-67
2022/09/05 03:47:28;;;;;;;16.83;8.80;;;;;;;18.22;100.00;102314.03;2079645;28;20424;-67
2022/09/05 03:48:54;;;;;;;12.60;8.40;;;;;;;18.23;100.00;102310.03;2080309;28;20493;-67
2022/09/05 03:50:35;;;;;;;13.17;8.70;;;;;;;18.24;100.00;102317.19;2080176;28;20562;-67
2022/09/05 03:51:45;;;;;;;13.37;8.60;;;;;;;18.27;100.00;102327.53;2080481;28;20426;-67
2022/09/05 03:53:07;;;;;;;15.30;8.93;;;;;;;18.23;100.00;102319.22;2080262;28;20450;-67
2022/09/05 03:54:33;;;;;;;12.87;9.47;;;;;;;18.22;100.00;102324.50;2080742;28;20435;-67
2022/09/05 03:56:00;;;;;;;17.30;8.77;;;;;;;18.22;100.00;102319.66;2078841;28;20475;-67
2022/09/05 03:57:30;;;;;;;14.93;9.10;;;;;;;18.21;100.00;102332.13;2079082;28;20447;-67
2022/09/05 03:59:02;;;;;;;12.67;8.53;;;;;;;18.18;100.00;102328.19;2078739;28;20550;-67
2022/09/05 04:00:10;;;;;;;12.57;8.60;;;;;;;18.16;100.00;102337.50;2074582;28;20420;-67
2022/09/05 04:01:18;;;;;;;13.97;8.83;;;;;;;18.09;100.00;102328.03;2077284;28;21993;-67
2022/09/05 04:02:27;;;;;;;12.10;8.23;;;;;;;17.97;100.00;102297.13;2079676;28;20866;-67
2022/09/05 04:03:38;;;;;;;10.57;8.80;;;;;;;18.23;100.00;102338.09;2079743;28;20440;-67
2022/09/05 04:04:41;;;;;;;9.17;8.00;;;;;;;18.24;100.00;102343.22;2079408;28;20446;-67
2022/09/05 04:05:49;;;;;;;10.30;8.33;;;;;;;18.00;100.00;102301.84;2079517;28;20439;-67
2022/09/05 04:06:54;;;;;;;11.90;8.67;;;;;;;18.29;100.00;102344.72;2079058;28;20450;-67
2022/09/05 04:08:06;;;;;;;11.60;8.50;;;;;;;18.27;100.00;102343.59;2078728;28;20827;-67
2022/09/05 04:09:15;;;;;;;9.07;7.77;;;;;;;18.28;100.00;102343.16;2077515;28;20443;-67
2022/09/05 04:10:40;;;;;;;13.53;8.53;;;;;;;18.33;100.00;102341.84;2079607;28;20458;-67
2022/09/05 04:11:46;;;;;;;20.67;8.47;;;;;;;18.35;100.00;102345.78;2080223;28;20443;-67
2022/09/05 04:12:55;;;;;;;12.63;8.87;;;;;;;18.36;100.00;102350.16;2080112;28;20474;-67
2022/09/05 04:14:03;;;;;;;12.10;8.80;;;;;;;18.28;100.00;102348.78;2080180;28;20895;-67
2022/09/05 04:15:16;;;;;;;13.30;8.47;;;;;;;18.32;100.00;102349.47;2079360;28;20451;-68
2022/09/05 04:16:24;;;;;;;11.73;9.20;;;;;;;18.36;100.00;102344.53;2079904;28;20485;-67
2022/09/05 04:17:48;;;;;;;10.53;8.43;;;;;;;18.22;100.00;102330.88;2079789;28;20505;-67
2022/09/05 04:19:16;;;;;;;14.87;9.07;;;;;;;18.40;100.00;102353.66;2078878;28;20465;-67
2022/09/05 04:20:47;;;;;;;15.50;9.07;;;;;;;18.44;100.00;102351.53;2076557;28;20439;-67
2022/09/05 04:22:12;;;;;;;11.80;8.80;;;;;;;18.45;100.00;102355.91;2077007;28;20442;-67
2022/09/05 04:23:40;;;;;;;11.83;9.07;;;;;;;18.48;100.00;102360.63;2079728;28;20482;-67
2022/09/05 04:25:03;;;;;;;12.17;8.53;;;;;;;18.45;100.00;102360.72;2078487;28;20431;-67
2022/09/05 04:26:19;;;;;;;13.47;8.40;;;;;;;18.46;100.00;102356.69;2077705;28;20508;-67
2022/09/05 04:27:28;;;;;;;15.07;8.73;;;;;;;18.48;100.00;102357.81;2079324;28;20490;-67
2022/09/05 04:28:34;;;;;;;10.30;8.70;;;;;;;18.54;100.00;102361.66;2079546;28;20448;-67
2022/09/05 04:29:53;;;;;;;12.77;8.70;;;;;;;18.57;100.00;102366.38;2079127;28;20562;-67
2022/09/05 04:31:44;;;;;;;13.33;8.90;;;;;;;18.56;100.00;102361.22;2078959;28;20475;-67
2022/09/05 04:32:52;;;;;;;12.00;8.93;;;;;;;18.56;100.00;102366.81;2085734;28;21045;-67
2022/09/05 04:33:58;;;;;;;11.07;9.17;;;;;;;18.50;100.00;102369.41;2079097;28;20740;-67
2022/09/05 04:35:20;;;;;;;11.60;9.67;;;;;;;18.49;100.00;102369.84;2079004;28;20580;-67
2022/09/05 04:36:27;;;;;;;13.33;9.50;;;;;;;17.67;100.00;102252.72;2079415;28;21042;-67
2022/09/05 04:37:46;;;;;;;14.03;9.33;;;;;;;18.45;100.00;102366.34;2079101;28;20457;-67
2022/09/05 04:39:16;;;;;;;12.97;8.80;;;;;;;18.41;100.00;102376.88;2078975;28;20864;-67
2022/09/05 04:40:29;;;;;;;15.87;10.10;;;;;;;18.41;100.00;102372.06;2079256;28;20431;-67
2022/09/05 04:41:32;;;;;;;14.87;9.80;;;;;;;18.42;100.00;102379.25;2079558;28;20935;-67
2022/09/05 04:42:38;;;;;;;15.57;9.10;;;;;;;18.44;100.00;102378.81;2076491;28;20443;-67
2022/09/05 04:43:45;;;;;;;15.63;9.37;;;;;;;18.42;100.00;102382.06;2079202;28;20454;-67
2022/09/05 04:44:52;;;;;;;20.43;9.53;;;;;;;18.11;100.00;102352.06;2073703;28;20821;-67
2022/09/05 04:46:13;;;;;;;15.97;10.87;;;;;;;18.47;100.00;102386.34;2077467;28;20931;-67
2022/09/05 04:47:27;;;;;;;16.27;10.17;;;;;;;18.50;100.00;102393.88;2072593;28;20808;-67
2022/09/05 04:48:35;;;;;;;15.80;9.80;;;;;;;18.54;100.00;102411.41;2072578;28;20464;-67
2022/09/05 04:49:43;;;;;;;13.00;10.40;;;;;;;18.56;100.00;102389.28;2075642;28;20467;-67
2022/09/05 04:51:07;;;;;;;14.40;10.40;;;;;;;18.55;100.00;102387.72;2068530;28;20446;-67
2022/09/05 04:52:20;;;;;;;15.53;10.43;;;;;;;17.83;100.00;102273.06;2078229;28;20805;-67
2022/09/05 04:53:35;;;;;;;14.53;9.73;;;;;;;18.56;100.00;102392.09;2077672;28;20427;-67
2022/09/05 04:54:45;;;;;;;14.90;10.30;;;;;;;18.60;100.00;102392.78;2078329;28;20412;-67
2022/09/05 04:55:50;;;;;;;12.40;9.80;;;;;;;18.61;100.00;102394.34;2077957;28;20483;-67
2022/09/05 04:56:59;;;;;;;17.73;10.27;;;;;;;18.65;100.00;102390.22;2076939;28;20458;-67
2022/09/05 04:58:11;;;;;;;12.73;9.97;;;;;;;18.52;100.00;102378.16;2077467;28;20962;-67
2022/09/05 04:59:27;;;;;;;16.83;10.33;;;;;;;18.69;100.00;102390.13;2075790;28;20526;-67
2022/09/05 05:00:38;;;;;;;18.27;10.10;;;;;;;18.73;100.00;102390.81;2073277;28;20477;-67
2022/09/05 05:01:47;;;;;;;16.73;9.77;;;;;;;18.75;100.00;102402.38;2075499;28;20451;-67
2022/09/05 05:02:59;;;;;;;14.80;9.90;;;;;;;18.67;100.00;102398.22;2069052;28;20443;-67
2022/09/05 05:04:10;;;;;;;16.77;10.23;;;;;;;18.27;100.00;102343.59;2075478;28;20447;-67
2022/09/05 05:05:34;;;;;;;17.67;10.23;;;;;;;18.73;100.00;102400.00;2076726;28;20466;-67
2022/09/05 05:06:45;;;;;;;15.53;9.80;;;;;;;18.79;100.00;102400.25;2076988;28;20450;-67
2022/09/05 05:07:51;;;;;;;18.70;10.20;;;;;;;18.84;100.00;102403.28;2075142;28;20450;-67
2022/09/05 05:08:57;;;;;;;15.03;9.77;;;;;;;18.90;100.00;102395.09;2071930;28;20447;-67
2022/09/05 05:10:01;;;;;;;15.17;9.77;;;;;;;18.97;100.00;102397.69;2075530;28;20906;-67
2022/09/05 05:11:11;;;;;;;13.73;9.57;;;;;;;18.58;100.00;102341.91;2073146;28;20448;-67
2022/09/05 05:12:40;;;;;;;18.77;10.23;;;;;;;19.07;100.00;102397.38;2075772;28;20533;-67
2022/09/05 05:14:06;;;;;;;15.33;9.97;;;;;;;19.15;100.00;102390.31;2073444;28;20461;-67
2022/09/05 05:15:16;;;;;;;14.40;9.97;;;;;;;19.23;100.00;102391.66;2080462;28;20486;-67
2022/09/05 05:16:29;;;;;;;12.50;8.97;;;;;;;19.28;100.00;102390.31;2075177;28;20451;-67
2022/09/05 05:17:38;;;;;;;16.40;9.50;;;;;;;19.33;100.00;102379.28;2075053;28;20454;-67
2022/09/05 05:18:45;;;;;;;16.53;9.47;;;;;;;19.33;100.00;102384.13;2076335;28;20439;-67
2022/09/05 05:19:53;;;;;;;13.60;9.97;;;;;;;19.22;100.00;102370.44;2074781;28;20439;-67
2022/09/05 05:21:06;;;;;;;16.03;9.73;;;;;;;19.47;100.00;102390.09;2076378;28;20457;-67
2022/09/05 05:22:14;;;;;;;21.60;10.23;;;;;;;19.55;100.00;102388.59;2076061;28;20447;-67
2022/09/05 05:23:27;;;;;;;13.87;9.47;;;;;;;19.55;100.00;102382.97;2074759;28;20527;-67
2022/09/05 05:24:50;;;;;;;15.27;9.87;;;;;;;19.66;100.00;102396.69;2075128;28;20505;-66
2022/09/05 05:25:55;;;;;;;16.63;9.70;;;;;;;19.72;100.00;102387.25;2075399;28;20982;-66
2022/09/05 05:27:15;;;;;;;15.10;9.43;;;;;;;19.80;100.00;102387.78;2075873;28;20915;-66
2022/09/05 05:28:27;;;;;;;15.33;9.13;;;;;;;19.83;100.00;102390.47;2075894;28;20481;-66
2022/09/05 05:29:58;;;;;;;14.80;9.30;;;;;;;19.89;100.00;102390.69;2074545;28;20593;-66
2022/09/05 05:31:19;;;;;;;12.57;8.90;;;;;;;19.89;100.00;102391.47;2075338;28;20455;-66
2022/09/05 05:32:25;;;;;;;12.63;8.43;;;;;;;19.93;100.00;102388.53;2076654;28;20461;-67
2022/09/05 05:33:31;;;;;;;12.20;8.70;;;;;;;20.00;100.00;102388.31;2070285;28;20451;-66
2022/09/05 05:34:40;;;;;;;13.87;8.93;;;;;;;20.01;100.00;102392.69;2074635;28;21001;-66
2022/09/05 05:35:45;;;;;;;10.50;8.57;;;;;;;20.00;100.00;102386.25;2074329;28;20463;-66
2022/09/05 05:36:52;;;;;;;13.23;8.63;;;;;;;20.02;100.00;102386.59;2075101;28;20569;-66
2022/09/05 05:38:21;;;;;;;9.73;7.93;;;;;;;20.07;100.00;102388.03;2075283;28;20451;-66
2022/09/05 05:39:27;;;;;;;10.23;7.80;;;;;;;19.89;100.00;102346.44;2072934;28;20871;-66
2022/09/05 05:40:34;;;;;;;13.90;8.40;;;;;;;20.02;100.00;102369.72;2074866;28;20447;-66
2022/09/05 05:41:53;;;;;;;10.60;8.33;;;;;;;20.21;100.00;102385.53;2074004;28;20502;-66
2022/09/05 05:43:16;;;;;;;10.37;8.30;;;;;;;20.23;100.00;102385.88;2067548;28;20536;-66
2022/09/05 05:44:22;;;;;;;13.63;8.40;;;;;;;20.30;100.00;102384.81;2074558;28;20500;-66
2022/09/05 05:45:32;;;;;;;9.77;7.90;;;;;;;20.34;100.00;102388.28;2075375;28;21058;-66
2022/09/05 05:46:38;;;;;;;11.90;8.23;;;;;;;20.36;100.00;102388.66;2075400;28;20439;-66
2022/09/05 05:47:44;;;;;;;9.37;8.07;;;;;;;19.47;100.00;102251.50;2075950;28;20442;-66
2022/09/05 05:48:46;;;;;;;10.17;8.00;;;;;;;20.43;100.00;102382.75;2075178;28;20510;-66
2022/09/05 05:50:09;;;;;;;10.53;8.20;;;;;;;20.44;100.00;102375.84;2074965;28;20622;-66
2022/09/05 05:51:29;;;;;;;10.37;7.80;;;;;;;20.50;100.00;102385.28;2075514;28;20450;-66